createdAt,value
2022-10-18T00:10:34.656Z,13.62
2022-10-18T00:22:35.103Z,12.66
2022-10-18T00:34:35.539Z,13.27
2022-10-18T00:46:36.004Z,12.57
2022-10-18T00:58:36.469Z,13.10
2022-10-18T01:10:36.935Z,13.06
2022-10-18T01:22:37.363Z,12.98
2022-10-18T01:34:37.815Z,12.34
2022-10-18T01:46:38.247Z,12.40
2022-10-18T01:58:38.736Z,12.63
2022-10-18T02:10:39.164Z,12.53
2022-10-18T02:22:39.617Z,11.92
2022-10-18T02:34:40.121Z,12.70
2022-10-18T02:46:40.528Z,12.21
2022-10-18T02:58:40.974Z,11.98
2022-10-18T03:10:41.406Z,12.41
2022-10-18T03:22:41.917Z,12.11
2022-10-18T03:34:42.358Z,12.35
2022-10-18T03:46:42.802Z,12.41
2022-10-18T03:58:43.246Z,12.33
2022-10-18T04:10:43.718Z,12.03
2022-10-18T04:22:44.134Z,12.27
2022-10-18T04:34:44.669Z,12.10
2022-10-18T04:46:45.092Z,11.68
2022-10-18T04:58:45.549Z,12.05
2022-10-18T05:10:45.976Z,12.08
2022-10-18T05:22:46.417Z,11.71
2022-10-18T05:34:46.881Z,11.89
2022-10-18T05:46:47.351Z,11.96
2022-10-18T05:58:47.817Z,12.36
2022-10-18T06:10:48.198Z,12.39
2022-10-18T06:22:48.661Z,12.43
2022-10-18T06:34:49.169Z,12.65
2022-10-18T06:46:49.633Z,12.89
2022-10-18T06:58:50.082Z,13.66
2022-10-18T07:10:50.494Z,14.29
2022-10-18T07:22:50.962Z,15.52
2022-10-18T07:34:51.416Z,16.92
2022-10-18T07:46:51.868Z,18.12
2022-10-18T07:58:52.355Z,19.12
2022-10-18T08:10:52.770Z,20.02
2022-10-18T08:22:55.478Z,20.67
2022-10-18T08:34:53.704Z,21.61
2022-10-18T08:46:54.112Z,22.54
2022-10-18T08:58:54.570Z,23.35
2022-10-18T09:10:55.025Z,24.05
2022-10-18T09:22:55.497Z,22.73
2022-10-18T09:34:55.975Z,24.07
2022-10-18T09:46:56.435Z,25.53
2022-10-18T09:58:56.854Z,24.86
2022-10-18T10:10:57.305Z,24.83
2022-10-18T10:22:57.767Z,25.05
2022-10-18T10:34:58.245Z,25.22
2022-10-18T10:46:58.696Z,24.80
2022-10-18T10:58:59.183Z,25.41
2022-10-18T11:10:59.592Z,26.29
2022-10-18T11:23:00.056Z,25.94
2022-10-18T11:35:00.537Z,25.32
2022-10-18T11:47:00.969Z,25.28
2022-10-18T11:59:01.379Z,25.16
2022-10-18T12:11:05.887Z,24.98
2022-10-18T12:23:02.347Z,25.72
2022-10-18T12:35:02.782Z,24.94
2022-10-18T12:47:03.254Z,24.92
2022-10-18T12:59:03.701Z,25.72
2022-10-18T13:11:04.196Z,25.62
2022-10-18T13:23:04.676Z,26.29
2022-10-18T13:35:05.069Z,26.27
2022-10-18T13:47:05.553Z,26.41
2022-10-18T13:59:14.305Z,25.99
2022-10-18T14:11:06.453Z,25.23
2022-10-18T14:23:06.909Z,23.95
2022-10-18T14:35:30.987Z,22.95
2022-10-18T14:47:07.830Z,22.72
2022-10-18T14:59:08.263Z,22.44
2022-10-18T15:11:11.841Z,21.94
2022-10-18T15:23:09.169Z,22.10
2022-10-18T15:35:09.645Z,21.75
2022-10-18T15:47:10.114Z,21.10
2022-10-18T15:59:10.560Z,20.39
2022-10-18T16:11:11.012Z,20.21
2022-10-18T16:23:11.469Z,20.04
2022-10-18T16:35:11.937Z,19.89
2022-10-18T16:47:12.391Z,19.57
2022-10-18T16:59:12.848Z,19.21
2022-10-18T17:11:13.313Z,18.72
2022-10-18T17:23:13.752Z,18.66
2022-10-18T17:35:14.145Z,18.59
2022-10-18T17:47:14.659Z,18.37
2022-10-18T17:59:15.120Z,17.92
2022-10-18T18:11:15.572Z,18.02
2022-10-18T18:23:15.993Z,18.26
2022-10-18T18:35:16.468Z,18.14
2022-10-18T18:59:17.400Z,17.90
2022-10-18T19:11:17.833Z,17.57
2022-10-18T19:23:18.388Z,17.41
2022-10-18T19:35:18.716Z,17.54
2022-10-18T19:47:19.194Z,17.33
2022-10-18T19:59:19.623Z,17.06
2022-10-18T20:11:20.111Z,16.93
2022-10-18T20:23:20.576Z,16.47
2022-10-18T20:35:21.010Z,16.01
2022-10-18T20:47:21.436Z,16.45
2022-10-18T20:59:21.930Z,15.52
2022-10-18T21:11:22.391Z,15.65
2022-10-18T21:23:22.816Z,15.12
2022-10-18T21:35:23.281Z,15.88
2022-10-18T21:47:23.738Z,15.12
2022-10-18T21:59:24.218Z,15.32
2022-10-18T22:11:24.642Z,15.33
2022-10-18T22:23:25.059Z,15.94
2022-10-18T22:35:25.577Z,15.64
2022-10-18T22:47:26.013Z,15.93
2022-10-18T22:59:26.443Z,15.80
2022-10-18T23:11:26.904Z,15.29
2022-10-18T23:23:27.345Z,15.47
2022-10-18T23:35:27.830Z,14.96
2022-10-18T23:47:28.317Z,15.19
2022-10-18T23:59:28.730Z,15.36
